Terminal Aerodrome Forecast
Issued by NWS Jackson, MS

Home | Current Version | Previous Version | Text Only | Print | Product List | Glossary On
Versions: 1 2 3 4 5 6 7 8 9 10 11 12 13
000
FTUS44 KJAN 252340
TAFJAN
TAF
KJAN 252340Z 2600/2624 VRB04G15KT P6SM VCTS SCT040CB SCT080
     FM260200 00000KT P6SM SKC
     FM261000 00000KT 4SM BR SKC
     FM261400 07004KT P6SM SCT040
     FM261800 05006KT P6SM VCTS SCT040CB SCT060=

USA.gov is the U.S. government's official web portal to all federal, state and local government web resources and services.